createdAt,value
2023-03-30T00:00:57.562Z,1008.11
2023-03-30T00:01:57.384Z,1008.16
2023-03-30T00:02:57.453Z,1008.15
2023-03-30T00:03:57.492Z,1008.13
2023-03-30T00:04:57.542Z,1008.10
2023-03-30T00:05:57.255Z,1008.07
2023-03-30T00:06:57.271Z,1008.07
2023-03-30T00:07:57.174Z,1008.08
2023-03-30T00:08:57.438Z,1008.09
2023-03-30T00:09:57.119Z,1008.09
2023-03-30T00:10:57.096Z,1008.04
2023-03-30T00:11:57.105Z,1008.08
2023-03-30T00:12:57.028Z,1008.01
2023-03-30T00:13:56.981Z,1007.99
2023-03-30T00:14:56.943Z,1007.99
2023-03-30T00:15:56.919Z,1008.01
2023-03-30T00:16:56.983Z,1007.97
2023-03-30T00:17:56.988Z,1007.97
2023-03-30T00:18:56.812Z,1007.95
2023-03-30T00:19:56.886Z,1007.97
2023-03-30T00:20:56.819Z,1007.98
2023-03-30T00:21:56.782Z,1007.91
2023-03-30T00:22:56.698Z,1007.82
2023-03-30T00:23:56.656Z,1007.81
2023-03-30T00:24:56.617Z,1007.82
2023-03-30T00:25:56.574Z,1007.80
2023-03-30T00:26:56.635Z,1007.79
2023-03-30T00:27:56.515Z,1007.76
2023-03-30T00:28:56.497Z,1007.75
2023-03-30T00:29:56.446Z,1007.73
2023-03-30T00:30:56.416Z,1007.74
2023-03-30T00:31:56.495Z,1007.71
2023-03-30T00:32:56.414Z,1007.67
2023-03-30T00:33:56.309Z,1007.68
2023-03-30T00:34:56.291Z,1007.65
2023-03-30T00:35:56.301Z,1007.63
2023-03-30T00:36:56.217Z,1007.56
2023-03-30T00:37:56.244Z,1007.52
2023-03-30T00:38:56.205Z,1007.48
2023-03-30T00:39:56.111Z,1007.44
2023-03-30T00:40:56.075Z,1007.41
2023-03-30T00:41:56.041Z,1007.34
2023-03-30T00:42:56.009Z,1007.32
2023-03-30T00:43:56.043Z,1007.29
2023-03-30T00:44:55.943Z,1007.24
2023-03-30T00:45:55.963Z,1007.19
2023-03-30T00:46:55.891Z,1007.20
2023-03-30T00:47:55.901Z,1007.17
2023-03-30T00:48:55.802Z,1007.15
2023-03-30T00:49:55.834Z,1007.14
2023-03-30T00:50:55.776Z,1007.15
2023-03-30T00:51:55.717Z,1007.16
2023-03-30T00:52:55.698Z,1007.06
2023-03-30T00:53:55.661Z,1007.06
2023-03-30T00:54:55.612Z,1007.05
2023-03-30T00:55:55.641Z,1007.03
2023-03-30T00:56:55.567Z,1007.00
2023-03-30T00:57:55.505Z,1007.02
2023-03-30T00:58:55.472Z,1007.03
2023-03-30T00:59:55.444Z,1007.01
2023-03-30T01:00:55.417Z,1007.04
2023-03-30T01:01:55.532Z,1007.05
2023-03-30T01:02:55.375Z,1007.07
2023-03-30T01:03:55.359Z,1007.09
2023-03-30T01:04:55.278Z,1007.06
2023-03-30T01:05:55.250Z,1007.03
2023-03-30T01:06:55.217Z,1006.97
2023-03-30T01:07:55.234Z,1006.91
2023-03-30T01:08:55.141Z,1006.94
2023-03-30T01:09:55.166Z,1006.92
2023-03-30T01:10:55.083Z,1006.93
2023-03-30T01:11:55.046Z,1006.89
2023-03-30T01:12:55.006Z,1006.91
2023-03-30T01:13:55.007Z,1006.89
2023-03-30T01:14:55.005Z,1006.88
2023-03-30T01:15:54.938Z,1006.94
2023-03-30T01:16:54.877Z,1006.93
2023-03-30T01:17:54.881Z,1006.88
2023-03-30T01:18:54.838Z,1006.86
2023-03-30T01:19:54.832Z,1006.83
2023-03-30T01:20:54.743Z,1006.76
2023-03-30T01:21:54.705Z,1006.77
2023-03-30T01:22:54.685Z,1006.76
2023-03-30T01:23:54.646Z,1006.73
2023-03-30T01:24:54.694Z,1006.71
2023-03-30T01:25:54.583Z,1006.70
2023-03-30T01:26:54.539Z,1006.69
2023-03-30T01:27:54.502Z,1006.66
2023-03-30T01:28:54.469Z,1006.65
2023-03-30T01:29:54.487Z,1006.64
2023-03-30T01:30:54.490Z,1006.62
2023-03-30T01:31:54.374Z,1006.60
2023-03-30T01:32:54.375Z,1006.61
2023-03-30T01:33:54.307Z,1006.58
2023-03-30T01:34:54.296Z,1006.58
2023-03-30T01:35:54.318Z,1006.58
2023-03-30T01:36:54.262Z,1006.58
2023-03-30T01:37:54.192Z,1006.54
2023-03-30T01:38:54.142Z,1006.53
2023-03-30T01:39:54.127Z,1006.50
2023-03-30T01:40:54.070Z,1006.51
2023-03-30T01:41:54.109Z,1006.48
2023-03-30T01:42:54.000Z,1006.50
2023-03-30T01:43:53.975Z,1006.47
2023-03-30T01:44:53.949Z,1006.55
2023-03-30T01:45:53.949Z,1006.54
2023-03-30T01:46:53.921Z,1006.52
2023-03-30T01:47:53.968Z,1006.56
2023-03-30T01:48:53.834Z,1006.53
2023-03-30T01:49:53.773Z,1006.51
2023-03-30T01:50:53.741Z,1006.47
2023-03-30T01:51:53.705Z,1006.40
2023-03-30T01:52:53.867Z,1006.39
2023-03-30T01:53:53.739Z,1006.41
2023-03-30T01:54:53.673Z,1006.41
2023-03-30T01:55:53.624Z,1006.48
2023-03-30T01:56:53.553Z,1006.52
2023-03-30T01:57:53.515Z,1006.44
2023-03-30T01:58:53.466Z,1006.40
2023-03-30T01:59:53.496Z,1006.34
2023-03-30T02:00:53.408Z,1006.31
2023-03-30T02:01:53.404Z,1006.31
2023-03-30T02:02:53.405Z,1006.33
2023-03-30T02:03:53.400Z,1006.28
2023-03-30T02:04:53.268Z,1006.28
2023-03-30T02:05:53.305Z,1006.26
2023-03-30T02:06:53.212Z,1006.25
2023-03-30T02:07:53.219Z,1006.28
2023-03-30T02:08:53.139Z,1006.25
2023-03-30T02:09:53.105Z,1006.24
2023-03-30T02:10:53.065Z,1006.19
2023-03-30T02:11:53.044Z,1006.21
2023-03-30T02:12:53.055Z,1006.17
2023-03-30T02:13:52.977Z,1006.15
2023-03-30T02:14:52.941Z,1006.17
2023-03-30T02:15:52.936Z,1006.13
2023-03-30T02:16:52.872Z,1006.13
2023-03-30T02:17:52.914Z,1006.09
2023-03-30T02:18:52.806Z,1006.03
2023-03-30T02:19:52.775Z,1006.07
2023-03-30T02:20:52.773Z,1006.05
2023-03-30T02:21:52.736Z,1006.03
2023-03-30T02:22:52.670Z,1006.04
2023-03-30T02:23:52.698Z,1006.07
2023-03-30T02:24:52.604Z,1006.06
2023-03-30T02:25:52.568Z,1006.06
2023-03-30T02:26:52.543Z,1005.99
2023-03-30T02:27:52.529Z,1005.98
2023-03-30T02:28:52.472Z,1005.93
2023-03-30T02:29:52.542Z,1005.89
2023-03-30T02:30:52.421Z,1005.86
2023-03-30T02:31:52.419Z,1005.74
2023-03-30T02:32:52.384Z,1005.70
2023-03-30T02:33:52.373Z,1005.68
2023-03-30T02:34:52.274Z,1005.65
2023-03-30T02:35:52.301Z,1005.66
2023-03-30T02:36:52.208Z,1005.68
2023-03-30T02:37:52.170Z,1005.71
2023-03-30T02:38:52.195Z,1005.61
2023-03-30T02:39:52.116Z,1005.64
2023-03-30T02:40:52.069Z,1005.66
2023-03-30T02:41:52.046Z,1005.65
2023-03-30T02:42:52.006Z,1005.68
2023-03-30T02:43:52.033Z,1005.69
2023-03-30T02:44:51.948Z,1005.68
2023-03-30T02:45:51.943Z,1005.65
2023-03-30T02:46:51.874Z,1005.62
2023-03-30T02:47:51.850Z,1005.57
2023-03-30T02:48:51.807Z,1005.54
2023-03-30T02:49:51.828Z,1005.56
2023-03-30T02:50:51.748Z,1005.55
2023-03-30T02:51:51.715Z,1005.52
2023-03-30T02:52:51.689Z,1005.52
2023-03-30T02:53:51.637Z,1005.52
2023-03-30T02:54:51.606Z,1005.50
2023-03-30T02:55:51.636Z,1005.47
2023-03-30T02:56:51.574Z,1005.37
2023-03-30T02:57:51.511Z,1005.36
2023-03-30T02:58:51.471Z,1005.40
2023-03-30T02:59:51.440Z,1005.36
2023-03-30T03:00:51.420Z,1005.38
2023-03-30T03:01:51.465Z,1005.37
2023-03-30T03:02:51.373Z,1005.36
2023-03-30T03:03:51.326Z,1005.35
2023-03-30T03:04:51.271Z,1005.39
2023-03-30T03:05:51.245Z,1005.37
2023-03-30T03:06:51.226Z,1005.32
2023-03-30T03:07:51.237Z,1005.31
2023-03-30T03:08:51.137Z,1005.34
2023-03-30T03:09:51.169Z,1005.30
2023-03-30T03:10:51.127Z,1005.30
2023-03-30T03:11:51.097Z,1005.29
2023-03-30T03:12:51.012Z,1005.26
2023-03-30T03:13:50.978Z,1005.25
2023-03-30T03:14:51.010Z,1005.28
2023-03-30T03:15:50.913Z,1005.27
2023-03-30T03:16:50.905Z,1005.27
2023-03-30T03:17:50.881Z,1005.26
2023-03-30T03:18:50.806Z,1005.27
2023-03-30T03:19:50.828Z,1005.24
2023-03-30T03:20:50.738Z,1005.25
2023-03-30T03:21:50.706Z,1005.20
2023-03-30T03:22:50.675Z,1005.19
2023-03-30T03:23:50.641Z,1005.13
2023-03-30T03:24:50.681Z,1005.15
2023-03-30T03:25:50.582Z,1005.17
2023-03-30T03:26:50.546Z,1005.17
2023-03-30T03:27:50.515Z,1005.19
2023-03-30T03:28:50.479Z,1005.18
2023-03-30T03:29:50.457Z,1005.12
2023-03-30T03:30:50.472Z,1005.08
2023-03-30T03:31:50.379Z,1005.09
2023-03-30T03:32:50.404Z,1005.04
2023-03-30T03:33:50.305Z,1004.97
2023-03-30T03:34:50.275Z,1004.96
2023-03-30T03:35:50.330Z,1004.96
2023-03-30T03:36:50.207Z,1004.93
2023-03-30T03:37:50.176Z,1004.96
2023-03-30T03:38:50.145Z,1004.90
2023-03-30T03:39:50.180Z,1004.90
2023-03-30T03:40:50.080Z,1004.87
2023-03-30T03:41:50.044Z,1004.87
2023-03-30T03:42:50.016Z,1004.83
2023-03-30T03:43:49.984Z,1004.84
2023-03-30T03:44:50.003Z,1004.88
2023-03-30T03:45:49.911Z,1004.88
2023-03-30T03:46:49.980Z,1004.82
2023-03-30T03:47:49.896Z,1004.85
2023-03-30T03:48:49.810Z,1004.87
2023-03-30T03:49:49.840Z,1004.86
2023-03-30T03:50:49.747Z,1004.81
2023-03-30T03:51:49.708Z,1004.76
2023-03-30T03:52:49.673Z,1004.72
2023-03-30T03:53:49.693Z,1004.65
2023-03-30T03:54:49.666Z,1004.60
2023-03-30T03:55:49.612Z,1004.54
2023-03-30T03:56:49.576Z,1004.59
2023-03-30T03:57:49.501Z,1004.57
2023-03-30T03:58:49.476Z,1004.56
2023-03-30T03:59:49.508Z,1004.63
2023-03-30T04:00:49.466Z,1004.62
2023-03-30T04:01:49.401Z,1004.60
2023-03-30T04:02:49.356Z,1004.59
2023-03-30T04:03:49.329Z,1004.53
2023-03-30T04:04:49.382Z,1004.50
2023-03-30T04:05:49.239Z,1004.46
2023-03-30T04:06:49.209Z,1004.42
2023-03-30T04:07:49.169Z,1004.42
2023-03-30T04:08:49.134Z,1004.37
2023-03-30T04:09:49.102Z,1004.35
2023-03-30T04:10:49.134Z,1004.33
2023-03-30T04:11:49.061Z,1004.33
2023-03-30T04:12:49.002Z,1004.35
2023-03-30T04:13:48.975Z,1004.38
2023-03-30T04:14:48.953Z,1004.33
2023-03-30T04:15:48.916Z,1004.30
2023-03-30T04:16:48.977Z,1004.32
2023-03-30T04:17:48.913Z,1004.27
2023-03-30T04:18:48.801Z,1004.23
2023-03-30T04:19:48.775Z,1004.24
2023-03-30T04:20:48.762Z,1004.26
2023-03-30T04:21:48.758Z,1004.30
2023-03-30T04:22:48.718Z,1004.35
2023-03-30T04:23:48.672Z,1004.33
2023-03-30T04:24:48.598Z,1004.31
2023-03-30T04:25:48.569Z,1004.29
2023-03-30T04:26:48.534Z,1004.27
2023-03-30T04:27:48.550Z,1004.25
2023-03-30T04:28:48.468Z,1004.21
2023-03-30T04:29:48.432Z,1004.22
2023-03-30T04:30:48.408Z,1004.26
2023-03-30T04:31:48.448Z,1004.25
2023-03-30T04:32:48.419Z,1004.23
2023-03-30T04:33:49.566Z,1004.23
2023-03-30T04:34:48.299Z,1004.18
2023-03-30T04:35:48.304Z,1004.18
2023-03-30T04:36:48.204Z,1004.19
2023-03-30T04:37:48.162Z,1004.15
2023-03-30T04:38:48.198Z,1004.24
2023-03-30T04:39:48.113Z,1004.25
2023-03-30T04:40:48.062Z,1004.26
2023-03-30T04:41:48.030Z,1004.32
2023-03-30T04:42:48.004Z,1004.29
2023-03-30T04:43:48.027Z,1004.25
2023-03-30T04:44:50.581Z,1004.30
2023-03-30T04:45:47.923Z,1004.25
2023-03-30T04:46:47.871Z,1004.32
2023-03-30T04:47:47.947Z,1004.34
2023-03-30T04:48:47.801Z,1004.32
2023-03-30T04:49:47.817Z,1004.32
2023-03-30T04:50:47.735Z,1004.25
2023-03-30T04:51:47.700Z,1004.22
2023-03-30T04:52:47.663Z,1004.11
2023-03-30T04:53:47.626Z,1004.11
2023-03-30T04:54:47.655Z,1004.06
2023-03-30T04:55:47.568Z,1004.02
2023-03-30T04:56:47.546Z,1003.93
2023-03-30T04:57:47.503Z,1003.86
2023-03-30T04:58:47.461Z,1003.83
2023-03-30T04:59:47.426Z,1003.82
2023-03-30T05:00:47.561Z,1003.84
2023-03-30T05:01:47.464Z,1003.88
2023-03-30T05:02:47.434Z,1003.86
2023-03-30T05:03:47.350Z,1003.87
2023-03-30T05:04:47.258Z,1003.78
2023-03-30T05:05:47.232Z,1003.74
2023-03-30T05:06:47.247Z,1003.72
2023-03-30T05:07:47.161Z,1003.64
2023-03-30T05:08:47.117Z,1003.61
2023-03-30T05:09:47.101Z,1003.53
2023-03-30T05:10:47.076Z,1003.53
2023-03-30T05:11:47.082Z,1003.54
2023-03-30T05:12:46.987Z,1003.56
2023-03-30T05:13:46.951Z,1003.49
2023-03-30T05:14:46.939Z,1003.52
2023-03-30T05:15:46.888Z,1003.51
2023-03-30T05:16:46.914Z,1003.57
2023-03-30T05:17:46.940Z,1003.56
2023-03-30T05:18:48.731Z,1003.60
2023-03-30T05:19:46.766Z,1003.62
2023-03-30T05:20:46.767Z,1003.56
2023-03-30T05:21:46.687Z,1003.55
2023-03-30T05:22:46.653Z,1003.53
2023-03-30T05:23:46.682Z,1003.51
2023-03-30T05:24:46.585Z,1003.55
2023-03-30T05:25:46.600Z,1003.52
2023-03-30T05:26:46.521Z,1003.59
2023-03-30T05:27:46.512Z,1003.59
2023-03-30T05:28:46.459Z,1003.60
2023-03-30T05:29:46.506Z,1003.59
2023-03-30T05:30:46.393Z,1003.46
2023-03-30T05:31:46.427Z,1003.46
2023-03-30T05:32:46.404Z,1003.45
2023-03-30T05:33:46.321Z,1003.48
2023-03-30T05:34:46.258Z,1003.52
2023-03-30T05:35:46.264Z,1003.54
2023-03-30T05:36:46.191Z,1003.52
2023-03-30T05:37:46.149Z,1003.50
2023-03-30T05:38:46.185Z,1003.48
2023-03-30T05:39:46.104Z,1003.49
2023-03-30T05:40:46.101Z,1003.52
2023-03-30T05:41:46.018Z,1003.51
2023-03-30T05:42:45.983Z,1003.54
2023-03-30T05:43:45.999Z,1003.57
2023-03-30T05:44:45.914Z,1003.60
2023-03-30T05:45:45.887Z,1003.56
2023-03-30T05:46:45.966Z,1003.56
2023-03-30T05:47:45.871Z,1003.55
2023-03-30T05:48:45.851Z,1003.54
2023-03-30T05:49:45.742Z,1003.53
2023-03-30T05:50:45.716Z,1003.44
2023-03-30T05:51:45.708Z,1003.40
2023-03-30T05:52:45.667Z,1003.45
2023-03-30T05:53:45.621Z,1003.43
2023-03-30T05:54:45.640Z,1003.43
2023-03-30T05:55:45.615Z,1003.48
2023-03-30T05:56:45.540Z,1003.41
2023-03-30T05:57:45.476Z,1003.42
2023-03-30T05:58:45.457Z,1003.40
2023-03-30T05:59:45.446Z,1003.39
2023-03-30T06:00:45.446Z,1003.37
2023-03-30T06:01:45.356Z,1003.35
2023-03-30T06:02:45.353Z,1003.37
2023-03-30T06:03:45.433Z,1003.38
2023-03-30T06:04:45.279Z,1003.34
2023-03-30T06:05:45.219Z,1003.35
2023-03-30T06:06:45.239Z,1003.31
2023-03-30T06:07:45.146Z,1003.22
2023-03-30T06:08:45.131Z,1003.30
2023-03-30T06:09:45.093Z,1003.28
2023-03-30T06:10:45.045Z,1003.30
2023-03-30T06:11:45.064Z,1003.28
2023-03-30T06:12:44.988Z,1003.25
2023-03-30T06:13:44.958Z,1003.30
2023-03-30T06:14:44.921Z,1003.31
2023-03-30T06:15:44.897Z,1003.33
2023-03-30T06:16:44.972Z,1003.33
2023-03-30T06:17:44.918Z,1003.32
2023-03-30T06:18:44.795Z,1003.35
2023-03-30T06:19:44.753Z,1003.33
2023-03-30T06:20:44.744Z,1003.30
2023-03-30T06:21:44.701Z,1003.27
2023-03-30T06:22:44.723Z,1003.23
2023-03-30T06:23:44.630Z,1003.24
2023-03-30T06:24:44.597Z,1003.25
2023-03-30T06:25:44.555Z,1003.20
2023-03-30T06:26:44.535Z,1003.25
2023-03-30T06:27:45.077Z,1003.25
2023-03-30T06:28:44.460Z,1003.23
2023-03-30T06:29:44.438Z,1003.29
2023-03-30T06:30:44.398Z,1003.32
2023-03-30T06:31:44.385Z,1003.30
2023-03-30T06:32:44.337Z,1003.26
2023-03-30T06:33:44.379Z,1003.26
2023-03-30T06:34:44.288Z,1003.25
2023-03-30T06:35:44.248Z,1003.25
2023-03-30T06:36:46.083Z,1003.25
2023-03-30T06:37:44.193Z,1003.22
2023-03-30T06:38:44.135Z,1003.23
2023-03-30T06:39:44.182Z,1003.22
2023-03-30T06:40:44.071Z,1003.17
2023-03-30T06:41:44.039Z,1003.24
2023-03-30T06:42:44.053Z,1003.22
2023-03-30T06:43:43.997Z,1003.17
2023-03-30T06:44:44.001Z,1003.10
2023-03-30T06:45:43.940Z,1003.07
2023-03-30T06:46:43.972Z,1003.03
2023-03-30T06:47:43.920Z,1003.01
2023-03-30T06:48:43.819Z,1003.10
2023-03-30T06:49:43.806Z,1003.09
2023-03-30T06:50:43.819Z,1003.12
2023-03-30T06:51:43.729Z,1003.03
2023-03-30T06:52:43.737Z,1003.05
2023-03-30T06:53:43.661Z,1003.04
2023-03-30T06:54:43.646Z,1002.98
2023-03-30T06:55:43.605Z,1003.04
2023-03-30T06:56:43.607Z,1003.02
2023-03-30T06:57:43.580Z,1002.95
2023-03-30T06:58:43.504Z,1002.98
2023-03-30T06:59:43.477Z,1002.95
2023-03-30T07:00:43.444Z,1002.90
2023-03-30T07:01:43.445Z,1002.91
2023-03-30T07:02:43.459Z,1002.96
2023-03-30T07:03:43.356Z,1002.89
2023-03-30T07:04:43.360Z,1002.82
2023-03-30T07:05:43.277Z,1002.79
2023-03-30T07:06:43.258Z,1002.77
2023-03-30T07:07:43.233Z,1002.77
2023-03-30T07:08:43.249Z,1002.73
2023-03-30T07:09:43.152Z,1002.75
2023-03-30T07:10:43.118Z,1002.72
2023-03-30T07:11:43.093Z,1002.67
2023-03-30T07:12:43.060Z,1002.63
2023-03-30T07:13:43.095Z,1002.56
2023-03-30T07:14:43.016Z,1002.59
2023-03-30T07:15:42.977Z,1002.55
2023-03-30T07:16:42.965Z,1002.58
2023-03-30T07:17:42.923Z,1002.60
2023-03-30T07:18:42.944Z,1002.63
2023-03-30T07:19:42.849Z,1002.62
2023-03-30T07:20:42.812Z,1002.57
2023-03-30T07:21:42.785Z,1002.53
2023-03-30T07:22:42.743Z,1002.59
2023-03-30T07:23:42.799Z,1002.59
2023-03-30T07:24:42.693Z,1002.55
2023-03-30T07:25:42.657Z,1002.57
2023-03-30T07:26:42.623Z,1002.58
2023-03-30T07:27:42.595Z,1002.54
2023-03-30T07:28:42.635Z,1002.57
2023-03-30T07:29:42.528Z,1002.53
2023-03-30T07:30:42.593Z,1002.51
2023-03-30T07:31:42.530Z,1002.51
2023-03-30T07:32:42.491Z,1002.50
2023-03-30T07:33:42.788Z,1002.47
2023-03-30T07:34:42.392Z,1002.47
2023-03-30T07:35:42.375Z,1002.45
2023-03-30T07:36:42.312Z,1002.42
2023-03-30T07:37:42.284Z,1002.41
2023-03-30T07:38:42.334Z,1002.41
2023-03-30T07:39:42.234Z,1002.46
2023-03-30T07:40:42.207Z,1002.45
2023-03-30T07:41:42.159Z,1002.44
2023-03-30T07:42:42.137Z,1002.44
2023-03-30T07:43:42.116Z,1002.44
2023-03-30T07:44:42.246Z,1002.39
2023-03-30T07:45:42.115Z,1002.44
2023-03-30T07:46:42.028Z,1002.43
2023-03-30T07:47:42.021Z,1002.40
2023-03-30T07:48:41.947Z,1002.44
2023-03-30T07:49:41.932Z,1002.42
2023-03-30T07:50:41.937Z,1002.52
2023-03-30T07:51:41.886Z,1002.47
2023-03-30T07:52:41.856Z,1002.54
2023-03-30T07:53:41.800Z,1002.48
2023-03-30T07:54:41.799Z,1002.49
2023-03-30T07:55:41.739Z,1002.47
2023-03-30T07:56:41.766Z,1002.51
2023-03-30T07:57:41.685Z,1002.53
2023-03-30T07:58:41.643Z,1002.53
2023-03-30T07:59:41.613Z,1002.49
2023-03-30T08:00:41.569Z,1002.48
2023-03-30T08:01:41.546Z,1002.53
2023-03-30T08:02:41.614Z,1002.50
2023-03-30T08:03:41.586Z,1002.53
2023-03-30T08:04:41.772Z,1002.52
2023-03-30T08:05:41.430Z,1002.47
2023-03-30T08:06:41.389Z,1002.47
2023-03-30T08:07:41.380Z,1002.47
2023-03-30T08:08:41.438Z,1002.46
2023-03-30T08:09:41.301Z,1002.44
2023-03-30T08:10:41.270Z,1002.46
2023-03-30T08:11:41.240Z,1002.43
2023-03-30T08:12:41.216Z,1002.44
2023-03-30T08:13:41.164Z,1002.43
2023-03-30T08:14:41.204Z,1002.44
2023-03-30T08:15:41.152Z,1002.38
2023-03-30T08:16:41.198Z,1002.40
2023-03-30T08:17:41.061Z,1002.37
2023-03-30T08:18:41.017Z,1002.33
2023-03-30T08:19:41.043Z,1002.29
2023-03-30T08:20:40.963Z,1002.28
2023-03-30T08:21:40.930Z,1002.29
2023-03-30T08:22:40.896Z,1002.30
2023-03-30T08:23:40.888Z,1002.21
2023-03-30T08:24:40.833Z,1002.20
2023-03-30T08:25:40.858Z,1002.27
2023-03-30T08:26:40.789Z,1002.28
2023-03-30T08:27:40.786Z,1002.36
2023-03-30T08:28:40.726Z,1002.38
2023-03-30T08:29:40.696Z,1002.34
2023-03-30T08:30:40.664Z,1002.31
2023-03-30T08:31:40.720Z,1002.28
2023-03-30T08:32:40.665Z,1002.31
2023-03-30T08:33:40.558Z,1002.29
2023-03-30T08:34:40.551Z,1002.32
2023-03-30T08:35:40.540Z,1002.22
2023-03-30T08:36:40.484Z,1002.23
2023-03-30T08:37:40.512Z,1002.27
2023-03-30T08:38:40.430Z,1002.23
2023-03-30T08:39:40.390Z,1002.25
2023-03-30T08:40:40.359Z,1002.16
2023-03-30T08:41:40.346Z,1002.17
2023-03-30T08:42:40.335Z,1002.23
2023-03-30T08:43:40.323Z,1002.20
2023-03-30T08:44:40.255Z,1002.26
2023-03-30T08:45:41.968Z,1002.28
2023-03-30T08:46:40.191Z,1002.25
2023-03-30T08:47:40.182Z,1002.25
2023-03-30T08:48:40.203Z,1002.20
2023-03-30T08:49:40.164Z,1002.26
2023-03-30T08:50:40.103Z,1002.23
2023-03-30T08:51:40.055Z,1002.25
2023-03-30T08:52:40.023Z,1002.28
2023-03-30T08:53:39.988Z,1002.27
2023-03-30T08:54:39.967Z,1002.26
2023-03-30T08:55:39.995Z,1002.25
2023-03-30T08:56:39.982Z,1002.25
2023-03-30T08:57:39.872Z,1002.29
2023-03-30T08:58:39.876Z,1002.30
2023-03-30T08:59:39.820Z,1002.30
2023-03-30T09:00:39.793Z,1002.33
2023-03-30T09:01:39.863Z,1002.34
2023-03-30T09:02:39.794Z,1002.36
2023-03-30T09:03:39.725Z,1002.37
2023-03-30T09:04:39.773Z,1002.35
2023-03-30T09:05:39.651Z,1002.37
2023-03-30T09:06:39.677Z,1002.36
2023-03-30T09:07:39.597Z,1002.30
2023-03-30T09:08:39.580Z,1002.28
2023-03-30T09:09:39.552Z,1002.27
2023-03-30T09:10:39.517Z,1002.28
2023-03-30T09:11:39.540Z,1002.28
2023-03-30T09:12:39.479Z,1002.21
2023-03-30T09:13:39.501Z,1002.21
2023-03-30T09:14:39.400Z,1002.26
2023-03-30T09:15:39.364Z,1002.23
2023-03-30T09:16:39.387Z,1002.22
2023-03-30T09:17:39.416Z,1002.26
2023-03-30T09:18:39.296Z,1002.25
2023-03-30T09:19:39.253Z,1002.22
2023-03-30T09:20:39.225Z,1002.23
2023-03-30T09:21:39.226Z,1002.24
2023-03-30T09:22:39.178Z,1002.19
2023-03-30T09:23:39.211Z,1002.20
2023-03-30T09:24:39.116Z,1002.19
2023-03-30T09:25:39.111Z,1002.24
2023-03-30T09:26:39.053Z,1002.21
2023-03-30T09:27:39.028Z,1002.26
2023-03-30T09:28:39.008Z,1002.27
2023-03-30T09:29:39.028Z,1002.25
2023-03-30T09:30:38.958Z,1002.24
2023-03-30T09:31:38.990Z,1002.26
2023-03-30T09:32:38.928Z,1002.31
2023-03-30T09:33:38.865Z,1002.34
2023-03-30T09:34:38.848Z,1002.34
2023-03-30T09:35:38.904Z,1002.31
2023-03-30T09:36:38.773Z,1002.34
2023-03-30T09:37:38.759Z,1002.35
2023-03-30T09:38:38.731Z,1002.34
2023-03-30T09:39:38.716Z,1002.34
2023-03-30T09:40:38.673Z,1002.35
2023-03-30T09:41:38.694Z,1002.31
2023-03-30T09:42:38.631Z,1002.24
2023-03-30T09:43:38.585Z,1002.26
2023-03-30T09:44:38.560Z,1002.26
2023-03-30T09:45:38.537Z,1002.25
2023-03-30T09:46:38.636Z,1002.34
2023-03-30T09:47:38.551Z,1002.35
2023-03-30T09:48:38.452Z,1002.29
2023-03-30T09:49:38.408Z,1002.29
2023-03-30T09:50:38.386Z,1002.33
2023-03-30T09:51:38.366Z,1002.29
2023-03-30T09:52:38.333Z,1002.30
2023-03-30T09:53:38.362Z,1002.32
2023-03-30T09:54:38.308Z,1002.34
2023-03-30T09:55:38.262Z,1002.34
2023-03-30T09:56:40.304Z,1002.34
2023-03-30T09:57:38.213Z,1002.37
2023-03-30T09:58:38.223Z,1002.41
2023-03-30T09:59:38.202Z,1002.41
2023-03-30T10:00:38.103Z,1002.39
2023-03-30T10:01:38.534Z,1002.39
2023-03-30T10:02:38.171Z,1002.34
2023-03-30T10:03:38.180Z,1002.34
2023-03-30T10:04:38.120Z,1002.33
2023-03-30T10:05:37.971Z,1002.37
2023-03-30T10:06:37.998Z,1002.34
2023-03-30T10:07:37.934Z,1002.41
2023-03-30T10:08:37.909Z,1002.39
2023-03-30T10:09:37.877Z,1002.44
2023-03-30T10:10:37.931Z,1002.37
2023-03-30T10:11:37.815Z,1002.37
2023-03-30T10:12:37.886Z,1002.43
2023-03-30T10:13:37.769Z,1002.42
2023-03-30T10:14:37.740Z,1002.44
2023-03-30T10:15:37.756Z,1002.44
2023-03-30T10:16:37.760Z,1002.47
2023-03-30T10:17:37.687Z,1002.48
2023-03-30T10:18:37.671Z,1002.51
2023-03-30T10:19:39.549Z,1002.51
2023-03-30T10:20:37.571Z,1002.54
2023-03-30T10:21:37.528Z,1002.55
2023-03-30T10:22:37.498Z,1002.51
2023-03-30T10:23:37.474Z,1002.50
2023-03-30T10:24:37.562Z,1002.42
2023-03-30T10:25:37.449Z,1002.46
2023-03-30T10:26:37.394Z,1002.45
2023-03-30T10:27:37.369Z,1002.40
2023-03-30T10:28:37.367Z,1002.39
2023-03-30T10:29:37.307Z,1002.37
2023-03-30T10:30:37.346Z,1002.35
2023-03-30T10:31:37.351Z,1002.34
2023-03-30T10:32:37.268Z,1002.30
2023-03-30T10:33:37.218Z,1002.33
2023-03-30T10:34:37.171Z,1002.27
2023-03-30T10:35:37.193Z,1002.33
2023-03-30T10:36:37.169Z,1002.30
2023-03-30T10:37:37.095Z,1002.31
2023-03-30T10:38:37.099Z,1002.19
2023-03-30T10:39:37.035Z,1002.25
2023-03-30T10:40:37.011Z,1002.22
2023-03-30T10:41:37.065Z,1002.20
2023-03-30T10:42:36.957Z,1002.26
2023-03-30T10:43:36.925Z,1002.26
2023-03-30T10:44:36.904Z,1002.29
2023-03-30T10:45:36.882Z,1002.27
2023-03-30T10:46:36.900Z,1002.32
2023-03-30T10:47:37.136Z,1002.29
2023-03-30T10:48:36.792Z,1002.29
2023-03-30T10:49:36.765Z,1002.27
2023-03-30T10:50:36.767Z,1002.28
2023-03-30T10:51:36.741Z,1002.31
2023-03-30T10:52:40.987Z,1002.29
2023-03-30T10:53:36.733Z,1002.26
2023-03-30T10:54:36.638Z,1002.21
2023-03-30T10:55:36.622Z,1002.22
2023-03-30T10:56:36.567Z,1002.24
2023-03-30T10:57:36.548Z,1002.17
2023-03-30T10:58:36.532Z,1002.19
2023-03-30T10:59:36.575Z,1002.20
2023-03-30T11:00:36.460Z,1002.19
2023-03-30T11:01:36.515Z,1002.15
2023-03-30T11:02:36.506Z,1002.17
2023-03-30T11:03:36.523Z,1002.15
2023-03-30T11:04:36.355Z,1002.17
2023-03-30T11:05:36.377Z,1002.20
2023-03-30T11:06:36.418Z,1002.18
2023-03-30T11:07:36.317Z,1002.15
2023-03-30T11:08:36.427Z,1002.14
2023-03-30T11:09:36.368Z,1002.15
2023-03-30T11:10:36.243Z,1002.13
2023-03-30T11:11:36.246Z,1002.16
2023-03-30T11:12:36.141Z,1002.08
2023-03-30T11:13:36.143Z,1002.13
2023-03-30T11:14:36.099Z,1002.11
2023-03-30T11:15:36.105Z,1002.12
2023-03-30T11:16:36.195Z,1002.13
2023-03-30T11:17:36.094Z,1002.08
2023-03-30T11:18:36.197Z,1002.07
2023-03-30T11:19:36.122Z,1002.11
2023-03-30T11:20:35.924Z,1002.05
2023-03-30T11:21:35.896Z,1002.07
2023-03-30T11:22:35.867Z,1002.12
2023-03-30T11:23:35.895Z,1002.03
2023-03-30T11:24:35.839Z,1002.09
2023-03-30T11:25:35.789Z,1002.09
2023-03-30T11:26:35.778Z,1002.10
2023-03-30T11:27:35.728Z,1002.04
2023-03-30T11:28:35.717Z,1002.06
2023-03-30T11:29:35.740Z,1001.92
2023-03-30T11:30:35.654Z,1001.94
2023-03-30T11:31:35.660Z,1001.90
2023-03-30T11:32:35.658Z,1001.91
2023-03-30T11:33:35.716Z,1001.86
2023-03-30T11:34:35.692Z,1001.83
2023-03-30T11:35:35.614Z,1001.87
2023-03-30T11:36:35.502Z,1001.89
2023-03-30T11:37:35.476Z,1001.86
2023-03-30T11:38:35.442Z,1001.85
2023-03-30T11:39:35.433Z,1001.82
2023-03-30T11:40:35.387Z,1001.79
2023-03-30T11:41:35.442Z,1001.75
2023-03-30T11:42:35.333Z,1001.70
2023-03-30T11:43:35.310Z,1001.72
2023-03-30T11:44:35.295Z,1001.66
2023-03-30T11:45:35.495Z,1001.66
2023-03-30T11:46:35.314Z,1001.66
2023-03-30T11:47:35.327Z,1001.68
2023-03-30T11:48:35.224Z,1001.71
2023-03-30T11:49:35.171Z,1001.62
2023-03-30T11:50:36.176Z,1001.59
2023-03-30T11:51:35.298Z,1001.45
2023-03-30T11:52:35.201Z,1001.50
2023-03-30T11:53:35.099Z,1001.48
2023-03-30T11:54:35.020Z,1001.45
2023-03-30T11:55:34.994Z,1001.41
2023-03-30T11:56:34.951Z,1001.30
2023-03-30T11:57:34.958Z,1001.31
2023-03-30T11:58:34.903Z,1001.30
2023-03-30T11:59:34.933Z,1001.29
2023-03-30T12:00:34.876Z,1001.21
2023-03-30T12:01:34.889Z,1001.26
2023-03-30T12:02:34.928Z,1001.23
2023-03-30T12:03:34.981Z,1001.27
2023-03-30T12:04:36.848Z,1001.26
2023-03-30T12:05:34.728Z,1001.28